NCAR-RAP Real-Time Weather Data

Output produced by METARs form (29 May 2017  09:32 UTC)
found at http://weather.rap.ucar.edu/surface/
 
KFZY 290854Z AUTO VRB06KT 6SM -RA BR FEW033 OVC080 16/15 A2976 RMK AO2 RAB08 SLP075 P0001 60011 T01610150 53005
KFZY 290826Z AUTO 14006KT 10SM -RA SCT031 OVC090 16/15 A2975 RMK AO2 RAB08 P0000 T01610150
KFZY 290754Z AUTO VRB06KT 10SM OVC028 17/15 A2975 RMK AO2 RAE52 SLP071 P0002 T01670150
KFZY 290726Z AUTO VRB05KT 10SM -RA BKN029 OVC100 17/15 A2974 RMK AO2 P0001 T01720150
KFZY 290654Z AUTO 13004KT 8SM -RA FEW060 SCT070 OVC085 17/15 A2974 RMK AO2 RAB18 SLP068 P0008 T01720150
KFZY 290554Z AUTO 14003KT 10SM BKN032 19/14 A2974 RMK AO2 SLP069 T01940139 10228 20189 56012
KFZY 290454Z AUTO 13005KT 10SM CLR 19/13 A2975 RMK AO2 SLP072 T01940133 402500078
KFZY 290354Z AUTO 14005KT 10SM SCT038 BKN060 20/13 A2977 RMK AO2 SLP078 T02000133
KFZY 290254Z AUTO VRB04KT 10SM BKN043 OVC060 22/13 A2978 RMK AO2 SLP082 T02170128 52002
KFZY 290154Z AUTO VRB03KT 10SM BKN050 OVC060 22/13 A2978 RMK AO2 SLP082 T02220128
KFZY 290054Z AUTO 14004KT 10SM OVC050 22/13 A2977 RMK AO2 SLP080 T02220133
KFZY 282354Z AUTO 12004KT 10SM OVC050 23/14 A2977 RMK AO2 SLP081 T02280139 10250 20228 55005
KFZY 282254Z AUTO VRB03KT 10SM OVC060 24/14 A2977 RMK AO2 SLP080 T02390139
KFZY 282154Z AUTO VRB05KT 10SM SCT070 BKN085 24/14 A2977 RMK AO2 SLP080 T02390139
KFZY 282054Z AUTO VRB04KT 10SM BKN065 24/14 A2979 RMK AO2 SLP086 T02440139 56020
KFZY 281954Z AUTO VRB03KT 10SM CLR 24/14 A2980 RMK AO2 SLP089 T02440139
KFZY 281854Z AUTO 13007KT 10SM FEW042 FEW049 BKN080 23/14 A2982 RMK AO2 SLP098 T02330139
KFZY 281754Z AUTO VRB04KT 10SM OVC075 23/16 A2985 RMK AO2 SLP107 T02330156 10233 20139 58004
KFZY 281654Z AUTO VRB04KT 10SM OVC070 22/15 A2987 RMK AO2 SLP113 T02170150
KFZY 281554Z AUTO 13007KT 110V180 10SM SCT065 22/13 A2986 RMK AO2 SLP111 T02170128
KFZY 281454Z AUTO 09006KT 10SM BKN065 19/13 A2986 RMK AO2 SLP111 T01940133 56015
KFZY 281354Z AUTO 12005KT 10SM OVC047 18/13 A2988 RMK AO2 SLP117 T01780133
KFZY 281254Z AUTO 08003KT 10SM CLR 17/14 A2989 RMK AO2 SLP119 T01670139
KFZY 281154Z AUTO 00000KT 8SM SCT002 14/13 A2991 RMK AO2 SLP126 70001 T01390128 10139 20078 50003
KFZY 281124Z AUTO 00000KT 4SM BR BKN002 13/12 A2992 RMK AO2 T01280117
KFZY 281115Z AUTO 13003KT 5SM BR SCT002 12/12 A2992 RMK AO2 T01220117
KFZY 281054Z AUTO 14004KT 8SM CLR 12/11 A2992 RMK AO2 SLP131 T01170111
KFZY 280954Z AUTO 00000KT 4SM BR CLR 09/08 A2991 RMK AO2 SLP128 T00940083
KFZY 280907Z AUTO 08003KT 7SM SCT002 08/07 A2990 RMK AO2 T00780072
KFZY 280854Z AUTO 00000KT 7SM CLR 08/08 A2990 RMK AO2 SLP124 T00830078 50001
KFZY 280845Z AUTO 00000KT 3SM BR CLR 08/07 A2990 RMK AO2 T00830072
KFZY 280843Z AUTO 00000KT 1 1/4SM BR CLR 08/07 A2990 RMK AO2 T00830072
KFZY 280835Z AUTO 00000KT 3/4SM BR CLR 08/07 A2990 RMK AO2 VIS 1/4V4 T00830072
KFZY 280833Z AUTO 00000KT 1 1/4SM BR CLR 08/07 A2990 RMK AO2 VIS 1/4V5 T00830072
KFZY 280758Z AUTO 00000KT 3SM BR CLR 09/08 A2991 RMK AO2 T00890078
KFZY 280754Z AUTO 00000KT 1 1/4SM BR CLR 09/08 A2991 RMK AO2 SLP128 T00890083
KFZY 280746Z AUTO 00000KT 1 1/2SM BR CLR 09/08 A2991 RMK AO2 T00890083
KFZY 280715Z AUTO 00000KT 3SM BR CLR 09/08 A2991 RMK AO2 T00940083
KFZY 280707Z AUTO 00000KT 1 3/4SM BR CLR 09/08 A2990 RMK AO2 T00890083
KFZY 280654Z AUTO 00000KT 9SM CLR 09/08 A2989 RMK AO2 SLP122 T00940083
KFZY 280647Z AUTO 00000KT 3SM BR CLR 09/08 A2989 RMK AO2 T00940083
KFZY 280636Z AUTO 00000KT 1 3/4SM BR CLR 09/09 A2990 RMK AO2 T00940089
KFZY 280556Z AUTO 00000KT 3SM BR CLR 09/08 A2989 RMK AO2 T00940083
KFZY 280554Z AUTO 00000KT 1 1/4SM BR CLR 09/08 A2989 RMK AO2 SLP123 T00940083 10172 20089 58006
KFZY 280543Z AUTO 00000KT 1/4SM FG VV002 10/09 A2990 RMK AO2 T01000094
KFZY 280536Z AUTO 00000KT 3/4SM BR CLR 09/09 A2992 RMK AO2 T00940089
KFZY 280533Z AUTO 00000KT 1 1/2SM BR CLR 10/09 A2992 RMK AO2 T01000089
KFZY 280505Z AUTO 00000KT 3SM BR CLR 10/09 A2992 RMK AO2 T01000094
KFZY 280501Z AUTO 00000KT 1 3/4SM BR CLR 10/09 A2992 RMK AO2 T01000094
KFZY 280454Z AUTO 00000KT 4SM BR CLR 10/09 A2991 RMK AO2 SLP130 T01000094 402060094
KFZY 280451Z AUTO 00000KT 4SM BR CLR 11/09 A2991 RMK AO2
KFZY 280449Z AUTO 00000KT 1 1/2SM BR CLR 11/09 A2991 RMK AO2
KFZY 280435Z AUTO 00000KT 3/4SM BR CLR 10/09 A2992 RMK AO2 T01000089
KFZY 280429Z AUTO 00000KT 1 3/4SM BR CLR 09/09 A2992 RMK AO2 T00940094
KFZY 280354Z AUTO 00000KT 3SM BR CLR 11/10 A2991 RMK AO2 SLP129 T01060100
KFZY 280331Z AUTO 00000KT 3SM BR CLR 11/11 A2991 RMK AO2 T01110106
KFZY 280328Z AUTO 00000KT 1 1/4SM BR CLR 11/11 A2991 RMK AO2 T01110106
KFZY 280323Z AUTO 00000KT 3/4SM BR CLR 11/10 A2991 RMK AO2 T01060100
KFZY 280318Z AUTO 00000KT 1 1/2SM BR CLR 11/10 A2991 RMK AO2 T01060100
KFZY 280306Z AUTO 00000KT 3SM BR CLR 11/11 A2991 RMK AO2 T01110106
KFZY 280302Z AUTO 00000KT 1 1/4SM BR CLR 12/11 A2991 RMK AO2 T01170106
KFZY 280259Z AUTO 00000KT 3/4SM BR CLR 12/11 A2991 RMK AO2 T01170106
KFZY 280254Z AUTO 00000KT 1 1/2SM BR CLR 12/11 A2991 RMK AO2 SLP130 T01170106 58001
KFZY 280154Z AUTO 00000KT 10SM CLR 13/12 A2992 RMK AO2 SLP133 T01280117
KFZY 280054Z AUTO 00000KT 10SM SCT060 15/12 A2992 RMK AO2 SLP131 T01500122
KFZY 272354Z AUTO 31004KT 10SM CLR 17/13 A2992 RMK AO2 SLP130 T01720128 10206 20172 53012
KFZY 272254Z AUTO 32005KT 10SM CLR 19/13 A2990 RMK AO2 SLP125 T01890128
KFZY 272154Z AUTO 31008KT 10SM FEW024 19/13 A2989 RMK AO2 SLP121 T01940133
KFZY 272054Z AUTO 27005KT 10SM FEW024 20/14 A2988 RMK AO2 SLP118 T02000139 56006
KFZY 271954Z AUTO 31006KT 10SM FEW025 21/14 A2988 RMK AO2 SLP119 T02060139
KFZY 271942Z AUTO 29006KT 10SM SCT025 20/13 A2988 RMK AO2 T02000133
KFZY 271931Z AUTO 27006KT 10SM BKN024 BKN033 19/14 A2989 RMK AO2 T01940139
KFZY 271854Z AUTO 26004KT 10SM FEW018 FEW027 SCT032 19/14 A2990 RMK AO2 SLP122 T01940139
KFZY 271754Z AUTO 30005KT 10SM SCT019 19/15 A2990 RMK AO2 RAE1655 SLP125 P0000 60001 T01890150 10189 20139 58004
KFZY 271733Z AUTO 29004KT 10SM FEW020 SCT038 18/15 A2991 RMK AO2 RAE1655 P0000 T01830150
KFZY 271654Z AUTO 29003KT 10SM -RA SCT008 OVC021 16/14 A2991 RMK AO2 RAE02B35 SLP128 P0000 T01610139
KFZY 271646Z AUTO 31004KT 7SM -RA BKN008 BKN021 OVC028 16/14 A2991 RMK AO2 RAE02B35 CIG 006V012 P0000 T01560139
KFZY 271637Z AUTO 30003KT 6SM -RA BR SCT008 BKN021 OVC028 16/14 A2991 RMK AO2 RAE02B35 P0000 T01610139
KFZY 271603Z AUTO 00000KT 4SM BR BKN020 OVC026 16/14 A2991 RMK AO2 RAE02 P0000 T01560139
KFZY 271554Z AUTO 00000KT 2 1/2SM -RA BR SCT015 OVC024 16/14 A2991 RMK AO2 RAB05 SLP129 P0001 T01560139
KFZY 271539Z AUTO 00000KT 5SM -RA SCT008 SCT014 OVC021 16/13 A2991 RMK AO2 RAB05 P0001 T01610133
KFZY 271513Z AUTO 18003KT 3SM -RA BR BKN007 BKN020 OVC040 16/14 A2991 RMK AO2 RAB05 P0001 T01560139
KFZY 271506Z AUTO 17004KT 6SM -RA BR SCT009 BKN018 OVC038 16/14 A2990 RMK AO2 RAB05 P0000 T01560139
KFZY 271454Z AUTO 00000KT 10SM BKN009 OVC018 15/13 A2991 RMK AO2 CIG 007V012 SLP127 60000 T01500133 53004
KFZY 271429Z AUTO VRB03KT 10SM BKN009 OVC013 16/13 A2990 RMK AO2 CIG 006V012 T01560133
KFZY 271418Z AUTO 00000KT 10SM BKN010 OVC013 16/13 A2990 RMK AO2 CIG 006V012 T01560133
KFZY 271354Z AUTO 00000KT 10SM BKN008 OVC013 16/13 A2990 RMK AO2 CIG 006V011 SLP125 T01560128
KFZY 271254Z AUTO 00000KT 10SM OVC006 15/13 A2990 RMK AO2 RAE16 SLP123 P0000 T01500133
KFZY 271245Z AUTO 00000KT 10SM BKN006 BKN010 OVC039 15/13 A2990 RMK AO2 RAE16 P0000 T01500133
KFZY 271233Z AUTO 18004KT 10SM SCT006 BKN029 OVC038 14/13 A2990 RMK AO2 RAE16 P0000 T01440133
KFZY 271226Z AUTO 00000KT 10SM FEW004 BKN040 OVC046 14/13 A2990 RMK AO2 RAE16 P0000 T01440133
KFZY 271219Z AUTO 18003KT 6SM BR FEW004 BKN026 OVC040 14/13 A2989 RMK AO2 RAE16 P0000 T01440128
KFZY 271211Z AUTO 20005KT 2 1/2SM -RA BR FEW004 BKN026 OVC031 14/13 A2989 RMK AO2 P0000 T01390133
KFZY 271154Z AUTO 19003KT 1 3/4SM -RA BR SCT004 BKN016 OVC027 14/13 A2989 RMK AO2 SLP123 P0006 60010 70023 T01390128 10139 20133 51009
KFZY 271147Z AUTO 00000KT 1 3/4SM -RA BR SCT003 OVC016 14/13 A2990 RMK AO2 P0005 T01390128
KFZY 271139Z AUTO 00000KT 3SM -RA BR FEW003 OVC016 14/13 A2989 RMK AO2 P0005 T01390128
KFZY 271103Z AUTO 00000KT 1 1/2SM RA BR FEW005 OVC018 13/13 A2989 RMK AO2 P0001 T01330128
KFZY 271054Z AUTO 00000KT 1 1/2SM -RA BR SCT005 BKN010 OVC018 14/13 A2989 RMK AO2 RAB0959 SLP122 P0003 T01390128
KFZY 271023Z AUTO 00000KT 1 1/2SM -RA BR BKN006 OVC012 13/13 A2988 RMK AO2 RAB0959 P0002 T01330128
KFZY 271012Z AUTO 00000KT 1 1/2SM -RA BR OVC012 13/13 A2988 RMK AO2 RAB0959 P0001 T01330128
KFZY 270954Z AUTO 00000KT 2SM BR OVC012 13/12 A2988 RMK AO2 RAB20E32 SLP117 P0000 T01330122
KFZY 270936Z AUTO 00000KT 3SM BR SCT007 OVC012 13/12 A2987 RMK AO2 RAB20E32 P0000 T01330122
KFZY 270919Z AUTO 00000KT 2SM BR SCT004 OVC010 13/12 A2987 RMK AO2 T01330122
KFZY 270912Z AUTO 00000KT 2SM BR BKN004 OVC010 13/12 A2987 RMK AO2 CIG 002V005 T01330122
KFZY 270854Z AUTO 00000KT 2SM BR SCT002 OVC010 13/12 A2987 RMK AO2 SLP114 60001 T01330122 50004
KFZY 270829Z AUTO 00000KT 2 1/2SM BR SCT003 OVC010 13/12 A2987 RMK AO2 T01330122
KFZY 270809Z AUTO 00000KT 3SM BR BKN003 OVC009 13/13 A2987 RMK AO2 CIG 003V008 T01330128
KFZY 270754Z AUTO 00000KT 6SM BR FEW004 OVC009 13/12 A2987 RMK AO2 RAE04 SLP114 P0001 T01330122
KFZY 270745Z AUTO 00000KT 9SM FEW002 OVC009 13/13 A2987 RMK AO2 RAE04 CIG 006V012 P0001 T01330128
KFZY 270738Z AUTO 00000KT 6SM BR SCT003 OVC011 13/13 A2986 RMK AO2 RAE04 P0001 T01330128
KFZY 270722Z AUTO 00000KT 4SM BR OVC003 13/12 A2986 RMK AO2 RAE04 CIG 002V006 P0001 T01330122
KFZY 270654Z AUTO 00000KT 2SM -RA BR BKN004 OVC017 13/12 A2986 RMK AO2 RAE07B52 SLP111 P0000 T01330122
KFZY 270643Z AUTO 00000KT 2 1/2SM BR FEW002 OVC016 13/12 A2986 RMK AO2 RAE07 P0000 T01330122
KFZY 270625Z AUTO 00000KT 4SM BR OVC018 13/12 A2986 RMK AO2 RAE07 P0000 T01330122
KFZY 270617Z AUTO 00000KT 2 1/2SM BR FEW005 OVC017 13/12 A2985 RMK AO2 RAE07 P0000 T01330122
KFZY 270609Z AUTO 00000KT 2 1/2SM BR FEW004 BKN014 OVC019 13/13 A2985 RMK AO2 RAE07 P0000 T01330128
KFZY 270554Z AUTO 00000KT 2SM -RA BR SCT002 OVC008 13/13 A2986 RMK AO2 RAE0457B41 SLP110 P0002 60008 T01330128 10139 20133 50002
KFZY 270530Z AUTO 00000KT 1 1/2SM BR OVC002 13/13 A2986 RMK AO2 RAE0457 P0001 T01330128
KFZY 270520Z AUTO 00000KT 2SM BR BKN003 OVC009 13/13 A2986 RMK AO2 RAE0457 P0001 T01330128
KFZY 270507Z AUTO 25003KT 3SM BR BKN003 OVC012 13/12 A2986 RMK AO2 RAE0457 P0000 T01330122
KFZY 270454Z AUTO 25003KT 2 1/2SM -RA BR SCT003 OVC010 13/12 A2986 RMK AO2 SLP110 P0005 T01330122 401500128
KFZY 270447Z AUTO 00000KT 2 1/2SM -RA BR SCT004 OVC010 13/12 A2986 RMK AO2 P0005 T01330122
KFZY 270435Z AUTO 00000KT 2SM -RA BR OVC006 13/12 A2986 RMK AO2 P0005 T01330122
KFZY 270424Z AUTO 00000KT 1 1/2SM RA BR OVC006 13/13 A2986 RMK AO2 P0004 T01330128
KFZY 270416Z AUTO 00000KT 1 1/2SM RA BR BKN004 OVC008 13/13 A2986 RMK AO2 P0003 T01330128
KFZY 270354Z AUTO 00000KT 2SM -RA BR BKN008 OVC014 13/12 A2985 RMK AO2 RAB0258 SLP110 P0001 T01330122
KFZY 270338Z AUTO 00000KT 2SM -RA BR SCT004 OVC008 13/12 A2985 RMK AO2 RAB0258 P0001 T01330122
KFZY 270307Z AUTO 00000KT 2SM -RA BR OVC003 13/12 A2985 RMK AO2 RAB0258 P0000 T01330122
KFZY 270254Z AUTO 00000KT 4SM BR OVC003 13/12 A2985 RMK AO2 RAB13E44 CIG 003V006 SLP108 P0000 60000 T01330122 51014
KFZY 270246Z AUTO 00000KT 4SM BR OVC005 13/12 A2985 RMK AO2 RAB13E44 P0000 T01330122
KFZY 270154Z AUTO 33004KT 6SM BR OVC003 13/13 A2984 RMK AO2 SLP105 T01330128
KFZY 270054Z AUTO 32003KT 10SM OVC003 13/13 A2982 RMK AO2 SLP098 T01330128
KFZY 262354Z AUTO 32004KT 10SM OVC004 14/13 A2981 RMK AO2 SLP094 60004 T01390128 10150 20133 53017
KFZY 262254Z AUTO 30006KT 10SM OVC004 14/13 A2979 RMK AO2 RAE13 SLP087 P0001 T01390128
KFZY 262211Z AUTO 30008KT 3SM -RA BR OVC004 13/13 A2977 RMK AO2 P0001 T01330128
KFZY 262154Z AUTO 31007KT 1 3/4SM -RA BR OVC004 13/12 A2977 RMK AO2 SLP082 P0002 T01330122
KFZY 262112Z AUTO 31007KT 1 1/2SM -RA BR OVC004 13/13 A2976 RMK AO2 P0001 T01330128
KFZY 262054Z AUTO 30007KT 2 1/2SM -RA BR OVC004 14/13 A2976 RMK AO2 SLP076 P0001 60001 T01390128 52012
KFZY 262048Z AUTO 31008KT 2 1/2SM -RA BR OVC004 14/13 A2975 RMK AO2 P0001
KFZY 262004Z AUTO 29008KT 3SM -RA BR BKN005 OVC010 14/13 A2974 RMK AO2 P0001 T01390128
KFZY 261954Z AUTO 29010KT 3SM -RA BR BKN006 OVC009 14/13 A2974 RMK AO2 RAB31 SLP070 P0000 T01390128
KFZY 261952Z AUTO 29009KT 3SM -RA BR BKN006 OVC009 14/13 A2974 RMK AO2 RAB31 P0000
KFZY 261940Z AUTO 30008KT 2 1/2SM -RA BR OVC006 14/13 A2974 RMK AO2 RAB31 CIG 004V011 P0000 T01390128
KFZY 261854Z AUTO 31008KT 10SM OVC007 15/13 A2972 RMK AO2 CIG 005V011 SLP064 T01500128
KFZY 261826Z AUTO 29007KT 10SM OVC007 14/13 A2971 RMK AO2 CIG 005V011 T01440128
KFZY 261754Z AUTO 30009KT 10SM OVC005 14/13 A2970 RMK AO2 CIG 005V010 SLP056 60001 T01440128 10150 20133 51020
KFZY 261738Z AUTO 29010KT 10SM OVC005 14/13 A2969 RMK AO2 CIG 005V010 T01440128
KFZY 261728Z AUTO 29010KT 8SM OVC006 14/13 A2968 RMK AO2 T01440128
KFZY 261705Z AUTO 31009G18KT 3SM BR OVC005 14/13 A2968 RMK AO2 T01390128
KFZY 261654Z AUTO 31011G19KT 2 1/2SM BR OVC007 14/13 A2968 RMK AO2 RAE50 SLP050 P0000 T01440128
KFZY 261638Z AUTO 31009KT 2SM -RA BR BKN005 OVC009 14/13 A2968 RMK AO2 P0000 T01440133
KFZY 261620Z AUTO 31009KT 3SM -RA BR OVC005 14/13 A2967 RMK AO2 P0000 T01440133
KFZY 261554Z AUTO 33009KT 1 1/2SM -RA BR OVC005 13/12 A2967 RMK AO2 RAB26 CIG 003V009 SLP047 P0001 T01330122
KFZY 261536Z AUTO 30010KT 1 3/4SM -RA BR OVC005 13/12 A2966 RMK AO2 RAB26 CIG 004V009 P0000 T01330122
KFZY 261454Z AUTO 30009KT 10SM OVC009 14/13 A2964 RMK AO2 CIG 005V014 SLP035 60000 T01440128 51008
KFZY 261451Z AUTO 30008KT 10SM OVC009 14/13 A2964 RMK AO2 CIG 005V014
KFZY 261431Z AUTO 29008KT 10SM OVC005 15/13 A2963 RMK AO2 CIG 004V008 T01500133
KFZY 261354Z AUTO 30005KT 10SM OVC006 14/13 A2962 RMK AO2 RAB1257E08 SLP031 P0000 T01440133
KFZY 261317Z AUTO 31004KT 10SM OVC006 14/13 A2962 RMK AO2 RAB1257E08 P0000 T01390128
KFZY 261254Z AUTO 32004KT 6SM BR OVC005 14/13 A2961 RMK AO2 SLP027 T01390128
KFZY 261251Z AUTO 32003KT 6SM BR OVC005 14/13 A2961 RMK AO2
KFZY 261226Z AUTO 00000KT 2 1/2SM BR OVC005 14/12 A2961 RMK AO2 T01390122
KFZY 261154Z AUTO 00000KT 10SM OVC005 14/12 A2960 RMK AO2 SLP025 60008 70035 T01390122 10139 20128 51022
KFZY 261126Z AUTO 00000KT 10SM OVC005 13/12 A2959 RMK AO2 CIG 003V010 T01330122
KFZY 261113Z AUTO 00000KT 10SM BKN003 OVC031 13/12 A2959 RMK AO2 T01330122
KFZY 261101Z AUTO 00000KT 6SM BR SCT003 SCT020 OVC029 13/12 A2958 RMK AO2 T01280117
KFZY 261054Z AUTO 00000KT 5SM BR BKN027 OVC031 13/12 A2958 RMK AO2 RAE54 SLP017 P0002 T01330122
KFZY 261048Z AUTO 00000KT 3SM -RA BR FEW006 BKN020 OVC027 13/12 A2958 RMK AO2 P0002
KFZY 261031Z AUTO 00000KT 1 1/2SM -RA BR FEW009 OVC016 13/12 A2958 RMK AO2 P0001 T01280122
KFZY 261019Z AUTO 00000KT 2 1/2SM -RA BR OVC011 13/12 A2958 RMK AO2 P0001 T01280117
KFZY 261010Z AUTO 00000KT 1 1/2SM -RA BR FEW008 OVC013 13/12 A2957 RMK AO2 P0001 T01280117
KFZY 260958Z AUTO 00000KT 1 3/4SM -RA BR FEW008 OVC017 13/12 A2957 RMK AO2 P0000 T01280117
KFZY 260954Z AUTO 00000KT 2SM -RA BR BKN017 OVC023 13/12 A2957 RMK AO2 RAB09 SLP012 P0006 T01280117
KFZY 260946Z AUTO 00000KT 1 3/4SM RA BR FEW008 OVC015 13/12 A2956 RMK AO2 RAB09 P0005 T01280117
KFZY 260932Z AUTO 00000KT 1 3/4SM -RA BR OVC016 13/12 A2956 RMK AO2 RAB09 P0002 T01330117
KFZY 260854Z AUTO 00000KT 10SM OVC017 14/11 A2954 RMK AO2 SLP002 T01390111 53002
KFZY 260754Z AUTO 00000KT 10SM BKN026 OVC036 14/11 A2953 RMK AO2 SLP998 T01390111
KFZY 260738Z AUTO 12003KT 10SM BKN026 OVC034 14/11 A2953 RMK AO2 T01390111
KFZY 260718Z AUTO VRB04KT 10SM SCT021 OVC034 14/11 A2953 RMK AO2 T01390111
KFZY 260654Z AUTO VRB04KT 10SM OVC021 14/11 A2954 RMK AO2 SLP003 T01390111
KFZY 260614Z AUTO VRB05KT 10SM BKN022 14/11 A2953 RMK AO2 T01390111
KFZY 260554Z AUTO VRB03KT 10SM SCT065 14/11 A2953 RMK AO2 SLP000 T01390111 10150 20139 58002
KFZY 260454Z AUTO VRB03KT 10SM BKN060 14/12 A2953 RMK AO2 SLP000 T01390117 401780128
KFZY 260354Z AUTO 10SM FEW022 BKN035 OVC065 14/12 A2955 RMK AO2 SLP005 T01390117
KFZY 260254Z AUTO VRB05KT 10SM BKN033 OVC060 14/12 A2954 RMK AO2 SLP002 T01390117 56001
KFZY 260201Z AUTO VRB05KT 9SM SCT024 BKN037 OVC065 14/12 A2954 RMK AO2 T01390117
KFZY 260154Z AUTO 10005KT 8SM BKN024 OVC037 14/12 A2954 RMK AO2 SLP002 T01390122
KFZY 260054Z AUTO 9SM BKN018 OVC025 14/12 A2954 RMK AO2 SLP001 T01440117
KFZY 252354Z AUTO VRB05KT 10SM BKN015 OVC020 15/12 A2954 RMK AO2 SLP003 60004 T01500122 10150 20133 53003
KFZY 252326Z AUTO 12007KT 070V170 10SM OVC016 15/12 A2954 RMK AO2 T01500122
KFZY 252254Z AUTO VRB05KT 10SM OVC012 14/12 A2952 RMK AO2 SLP995 T01440122
KFZY 252229Z AUTO VRB06KT 10SM BKN012 BKN019 OVC026 14/12 A2953 RMK AO2 T01440122
KFZY 252221Z AUTO 11005KT 10SM SCT011 OVC024 14/12 A2953 RMK AO2 T01440122
KFZY 252154Z AUTO VRB04KT 10SM BKN011 OVC029 14/12 A2953 RMK AO2 RAB07E19 SLP997 P0000 T01440122
KFZY 252054Z AUTO VRB05KT 10SM FEW009 BKN014 OVC026 14/13 A2953 RMK AO2 RAB07E51 SLP999 P0002 60004 T01440128 58011
KFZY 252041Z AUTO VRB06KT 4SM -RA BR FEW009 BKN012 OVC021 14/12 A2953 RMK AO2 RAB07 P0002 T01390122
KFZY 252029Z AUTO VRB05KT 2 1/2SM RA BR FEW008 BKN012 OVC021 14/12 A2954 RMK AO2 RAB07 P0002 T01390122
KFZY 251954Z AUTO VRB04KT 6SM BR BKN011 OVC016 14/12 A2955 RMK AO2 RAE19B29E53 SLP004 P0001 T01390117
KFZY 251935Z AUTO VRB06KT 6SM -RA BR BKN013 OVC020 14/12 A2955 RMK AO2 RAE19B29 P0001 T01440122
KFZY 251926Z AUTO 13008G21KT 090V160 7SM BKN015 OVC020 14/12 A2955 RMK AO2 RAE19 P0001 T01390122
KFZY 251916Z AUTO 13011G20KT 8SM -RA BKN014 OVC019 14/12 A2956 RMK AO2 P0001 T01390117
KFZY 251901Z AUTO 11007G19KT 070V130 5SM -RA BR BKN015 OVC021 14/12 A2955 RMK AO2 P0000 T01390117
KFZY 251854Z AUTO 12009G19KT 080V150 6SM -RA BR BKN013 OVC018 14/12 A2955 RMK AO2 SLP006 P0001 T01390117
KFZY 251817Z AUTO 10009G22KT 060V150 3SM -RA BR BKN014 OVC020 13/12 A2956 RMK AO2 P0001 T01330117
KFZY 251805Z AUTO VRB06G15KT 3SM -RA BR SCT014 BKN018 OVC070 13/12 A2956 RMK AO2 P0001 T01330117
KFZY 251754Z AUTO 11007G19KT 060V210 8SM -RA SCT020 BKN060 OVC075 14/11 A2956 RMK AO2 RAE32B52 SLP010 P0003 60023 T01390111 10156 20128 56011
KFZY 251707Z AUTO 10008G18KT 060V140 4SM RA BR BKN070 OVC090 13/11 A2957 RMK AO2 P0003 T01280106
KFZY 251654Z AUTO 11008G19KT 060V140 2 1/2SM RA BR FEW060 BKN080 OVC100 13/11 A2957 RMK AO2 SLP013 P0013 T01280106
KFZY 251554Z AUTO 10007KT 070V160 7SM -RA OVC065 13/11 A2960 RMK AO2 SLP021 P0003 T01330106
KFZY 251454Z AUTO 10009G18KT 040V140 5SM -RA OVC095 13/11 A2960 RMK AO2 SLP023 P0003 60004 T01330106 56017
KFZY 251354Z AUTO 11009G18KT 080V140 10SM -RA FEW080 OVC100 14/10 A2962 RMK AO2 RAB1256 SLP028 P0001 T01440100
KFZY 251254Z AUTO 10007KT 070V140 10SM OVC065 15/09 A2963 RMK AO2 RAE49 SLP034 P0000 T01500094
KFZY 251154Z AUTO VRB05KT 10SM -RA OVC085 15/09 A2965 RMK AO2 RAB01 SLP039 P0000 60000 T01500094 10172 20150 58008
KFZY 251054Z AUTO VRB04KT 10SM OVC090 16/09 A2967 RMK AO2 SLP046 T01610094
KFZY 250954Z AUTO 00000KT 10SM BKN090 OVC110 16/09 A2969 RMK AO2 SLP051 T01610094
KFZY 250854Z AUTO VRB03KT 10SM CLR 16/09 A2968 RMK AO2 SLP048 T01610094 56006
KFZY 250754Z AUTO 00000KT 10SM SCT070 17/10 A2969 RMK AO2 SLP051 T01670100
KFZY 250654Z AUTO 00000KT 10SM CLR 17/10 A2969 RMK AO2 SLP051 T01670100
KFZY 250554Z AUTO VRB03KT 10SM CLR 17/10 A2970 RMK AO2 SLP054 60000 T01720100 10222 20172 58010